Data for 10/12/2008

Time Sea-Level Adjusted Pressure Absolute Pressure Temperature Relative Humidity Dew Point   
(mb) (inHg) (mb) (inHg) (C) (F) (%) (C) (F)
00:05 1018 30.06 847 25.01 -2.4 27.7 74 -6.5 20.4
00:10 1017 30.03 847 25.01 -2.4 27.7 75 -6.3 20.7
00:15 1017 30.03 847 25.01 -2.5 27.6 75 -6.4 20.5
00:20 1017 30.03 846 24.98 -2.5 27.5 75 -6.4 20.5
00:25 1017 30.03 846 24.98 -2.5 27.4 75 -6.4 20.5
00:30 1017 30.03 846 24.98 -2.6 27.3 75 -6.4 20.4
00:35 1017 30.03 846 24.98 -2.6 27.4 76 -6.3 20.7
00:40 1017 30.03 846 24.98 -2.6 27.3 76 -6.3 20.6
00:45 1017 30.03 846 24.98 -2.6 27.3 76 -6.2 20.8
00:50 1017 30.03 846 24.98 -2.6 27.3 78 -6 21.2
00:55 1017 30.03 847 25.01 -2.7 27.2 79 -5.9 21.4
01:00 1017 30.03 847 25.01 -2.8 27 81 -5.6 22
01:05 1018 30.06 847 25.01 -3 26.6 84 -5.4 22.3
01:10 1018 30.06 847 25.01 -3.1 26.4 86 -5.2 22.7
01:15 1017 30.03 847 25.01 -3.2 26.2 87 -5.1 22.9
01:20 1017 30.03 846 24.98 -3.4 26 88 -5.1 22.9
01:25 1017 30.03 846 24.98 -3.3 26 87 -5.3 22.5
01:30 1017 30.03 847 25.01 -3.3 26.1 85 -5.5 22.1
01:35 1017 30.03 847 25.01 -3.2 26.2 83 -5.7 21.7
01:40 1017 30.03 847 25.01 -3.1 26.5 81 -5.8 21.6
01:45 1017 30.03 847 25.01 -3 26.6 80 -5.9 21.3
01:50 1017 30.03 847 25.01 -3 26.6 79 -6.1 21
01:55 1017 30.03 847 25.01 -3 26.6 79 -6.1 21
02:00 1017 30.03 847 25.01 -3 26.6 81 -5.9 21.4
02:05 1018 30.06 847 25.01 -3.1 26.5 81 -5.8 21.5
02:10 1018 30.06 847 25.01 -3.1 26.4 81 -5.9 21.3
02:15 1018 30.06 847 25.01 -3.2 26.3 81 -6 21.2
02:20 1018 30.06 847 25.01 -3.2 26.2 83 -5.7 21.7
02:25 1018 30.06 847 25.01 -3.4 26 85 -5.6 22
02:30 1018 30.06 847 25.01 -3.5 25.8 87 -5.3 22.5
02:35 1018 30.06 847 25.01 -3.6 25.5 89 -5.1 22.8
02:40 1018 30.06 847 25.01 -3.7 25.3 91 -4.9 23.1
02:45 1018 30.06 847 25.01 -3.8 25.1 93 -4.9 23.2
02:50 1018 30.06 847 25.01 -3.9 25 92 -4.9 23.1
02:55 1018 30.06 847 25.01 -3.9 25 93 -4.9 23.2
03:00 1018 30.06 847 25.01 -3.9 25 93 -4.9 23.3
03:05 1018 30.06 847 25.01 -3.9 25 93 -4.9 23.1
03:10 1018 30.06 847 25.01 -3.9 24.9 93 -4.8 23.3
03:15 1018 30.06 847 25.01 -3.9 24.9 94 -4.8 23.3
03:20 1018 30.06 847 25.01 -4 24.9 94 -4.8 23.4
03:25 1018 30.06 847 25.01 -4 24.8 94 -4.8 23.3
03:30 1018 30.06 847 25.01 -4 24.7 94 -4.9 23.1
03:35 1018 30.06 847 25.01 -4 24.8 93 -4.9 23.1
03:40 1018 30.06 847 25.01 -4 24.8 93 -5 23
03:45 1018 30.06 847 25.01 -3.9 24.9 92 -5 23
03:50 1018 30.06 847 25.01 -3.9 25 91 -5.1 22.8
03:55 1018 30.06 847 25.01 -3.9 25 90 -5.3 22.4
04:00 1018 30.06 847 25.01 -3.8 25.1 90 -5.3 22.5
04:05 1018 30.06 847 25.01 -3.8 25.2 90 -5.2 22.7
04:10 1018 30.06 847 25.01 -3.8 25.1 89 -5.4 22.2
04:15 1018 30.06 847 25.01 -3.8 25.2 89 -5.3 22.4
04:20 1018 30.06 847 25.01 -3.8 25.2 87 -5.7 21.7
04:25 1018 30.06 847 25.01 -3.6 25.5 83 -6.1 21
04:30 1018 30.06 847 25.01 -3.5 25.7 83 -6.1 21.1
04:35 1018 30.06 847 25.01 -3.5 25.7 85 -5.6 21.9
04:40 1018 30.06 847 25.01 -3.6 25.6 88 -5.2 22.6
04:45 1018 30.06 847 25.01 -3.7 25.3 91 -5 22.9
04:50 1018 30.06 847 25.01 -3.9 24.9 93 -4.9 23.1
04:55 1018 30.06 847 25.01 -4.1 24.7 93 -5 23
05:00 1018 30.06 847 25.01 -4.1 24.6 94 -4.9 23.2
05:05 1018 30.06 847 25.01 -4.1 24.6 94 -4.9 23.2
05:10 1018 30.06 847 25.01 -4.1 24.6 95 -4.8 23.3
05:15 1018 30.06 847 25.01 -4.1 24.6 95 -4.8 23.4
05:20 1018 30.06 848 25.04 -4.1 24.7 95 -4.8 23.3
05:25 1018 30.06 848 25.04 -4.1 24.6 95 -4.8 23.4
05:30 1019 30.09 848 25.04 -4.1 24.6 96 -4.8 23.4
05:35 1019 30.09 848 25.04 -4.1 24.6 96 -4.7 23.5
05:40 1019 30.09 848 25.04 -4.1 24.7 95 -4.7 23.6
05:45 1019 30.09 848 25.04 -4.2 24.5 96 -4.7 23.5
05:50 1019 30.09 848 25.04 -4.2 24.5 96 -4.7 23.5
05:55 1019 30.09 848 25.04 -4.3 24.3 96 -4.8 23.4
06:00 1019 30.09 848 25.04 -4.3 24.3 95 -4.9 23.2
06:05 1019 30.09 848 25.04 -4.3 24.3 96 -4.9 23.2
06:10 1019 30.09 848 25.04 -4.3 24.3 96 -4.9 23.2
06:15 1019 30.09 848 25.04 -4.3 24.3 96 -4.8 23.3
06:20 1019 30.09 848 25.04 -4.2 24.4 96 -4.8 23.3
06:25 1019 30.09 848 25.04 -4.3 24.3 95 -4.9 23.1
06:30 1019 30.09 848 25.04 -4.2 24.4 95 -4.9 23.2
06:35 1019 30.09 848 25.04 -4.2 24.4 95 -4.8 23.3
06:40 1019 30.09 848 25.04 -4.2 24.4 95 -4.9 23.1
06:45 1019 30.09 848 25.04 -4.3 24.3 95 -4.9 23.2
06:50 1019 30.09 848 25.04 -4.3 24.3 95 -5 23
06:55 1019 30.09 848 25.04 -4.3 24.3 95 -5 23
07:00 1019 30.09 848 25.04 -4.3 24.2 95 -5.1 22.9
07:05 1019 30.09 848 25.04 -4.3 24.2 95 -5 23
07:10 1019 30.09 848 25.04 -4.3 24.2 94 -5.1 22.8
07:15 1019 30.09 848 25.04 -4.3 24.2 94 -5.1 22.8
07:20 1019 30.09 848 25.04 -4.3 24.2 94 -5.1 22.8
07:25 1019 30.09 848 25.04 -4.3 24.2 95 -5.1 22.8
07:30 1019 30.09 848 25.04 -4.4 24.1 95 -5.1 22.8
07:35 1019 30.09 848 25.04 -4.4 24.1 95 -5.1 22.7
07:40 1019 30.09 848 25.04 -4.4 24 95 -5.2 22.7
07:45 1019 30.09 848 25.04 -4.4 24 95 -5.1 22.8
07:50 1019 30.09 848 25.04 -4.4 24 95 -5.2 22.6
07:55 1019 30.09 848 25.04 -4.5 24 95 -5.2 22.7
08:00 1019 30.09 848 25.04 -4.5 24 94 -5.2 22.6
08:05 1019 30.09 848 25.04 -4.4 24 94 -5.2 22.6
08:10 1019 30.09 848 25.04 -4.4 24.1 94 -5.3 22.5
08:15 1019 30.09 848 25.04 -4.4 24.1 93 -5.3 22.5
08:20 1019 30.09 848 25.04 -4.4 24.2 93 -5.3 22.5
08:25 1019 30.09 848 25.04 -4.4 24.1 93 -5.3 22.5
08:30 1019 30.09 848 25.04 -4.4 24.2 94 -5.2 22.6
08:35 1019 30.09 849 25.07 -4.3 24.2 93 -5.3 22.5
08:40 1019 30.09 849 25.07 -4.3 24.3 92 -5.3 22.4
08:45 1019 30.09 849 25.07 -4.2 24.5 92 -5.3 22.4
08:50 1020 30.12 849 25.07 -4.1 24.6 91 -5.4 22.3
08:55 1020 30.12 849 25.07 -4 24.8 89 -5.6 22
09:00 1020 30.12 849 25.07 -4 24.8 90 -5.4 22.2
09:05 1020 30.12 849 25.07 -4 24.8 89 -5.5 22
09:10 1020 30.12 849 25.07 -3.8 25.2 88 -5.5 22.2
09:15 1020 30.12 849 25.07 -3.7 25.3 88 -5.4 22.2
09:20 1020 30.12 849 25.07 -3.7 25.4 88 -5.3 22.4
09:25 1020 30.12 849 25.07 -3.5 25.8 87 -5.4 22.3
09:30 1020 30.12 849 25.07 -3.5 25.7 86 -5.4 22.2
09:35 1020 30.12 849 25.07 -3.3 26.1 85 -5.4 22.2
09:40 1020 30.12 849 25.07 -3 26.6 83 -5.4 22.2
09:45 1020 30.12 849 25.07 -2.9 26.7 84 -5.3 22.5
09:50 1020 30.12 849 25.07 -3 26.7 84 -5.2 22.6
09:55 1020 30.12 849 25.07 -3.1 26.5 86 -5.1 22.8
10:00 1020 30.12 849 25.07 -3 26.6 85 -5.1 22.8
10:05 1020 30.12 849 25.07 -3 26.6 87 -4.9 23.1
10:10 1020 30.12 849 25.07 -2.7 27.2 87 -4.6 23.8
10:15 1020 30.12 849 25.07 -2.7 27.2 87 -4.6 23.7
10:20 1020 30.12 849 25.07 -2.9 26.8 88 -4.6 23.6
10:25 1020 30.12 849 25.07 -2.6 27.4 88 -4.3 24.2
10:30 1020 30.12 849 25.07 -2.2 28.1 84 -4.4 24
10:35 1020 30.12 849 25.07 -2.1 28.3 83 -4.7 23.6
10:40 1020 30.12 849 25.07 -1.5 29.4 83 -4 24.8
10:45 1020 30.12 849 25.07 -1.5 29.3 81 -4.4 24.1
10:50 1020 30.12 849 25.07 -0.6 31 79 -3.9 25.1
10:55 1020 30.12 849 25.07 -1.2 29.8 79 -4.4 24.1
11:00 1020 30.12 849 25.07 -1.3 29.7 80 -4.2 24.4
11:05 1020 30.12 849 25.07 -1 30.1 80 -4 24.7
11:10 1020 30.12 850 25.1 -1.4 29.5 82 -4.1 24.5
11:15 1020 30.12 850 25.1 -1.8 28.8 83 -4.3 24.3
11:20 1020 30.12 850 25.1 -1.7 29 82 -4.4 24.2
11:25 1021 30.15 850 25.1 -1.6 29.2 82 -4.3 24.3
11:30 1021 30.15 850 25.1 -1.5 29.2 81 -4.4 24.2
11:35 1021 30.15 850 25.1 -1.4 29.4 79 -4.6 23.7
11:40 1021 30.15 850 25.1 -1.2 29.9 78 -4.5 23.9
11:45 1021 30.15 850 25.1 -0.8 30.5 76 -4.5 23.9
11:50 1021 30.15 850 25.1 -1 30.2 78 -4.4 24.1
11:55 1021 30.15 850 25.1 -1 30.3 79 -4.1 24.7
12:00 1021 30.15 850 25.1 -0.9 30.3 80 -4 24.9
12:05 1021 30.15 850 25.1 -0.7 30.7 80 -3.8 25.2
12:10 1021 30.15 850 25.1 -0.6 30.8 79 -3.9 25
12:15 1021 30.15 850 25.1 -0.8 30.5 75 -4.6 23.7
12:20 1021 30.15 850 25.1 -1 30.2 79 -4.3 24.3
12:25 1021 30.15 850 25.1 -1 30.2 77 -4.6 23.7
12:30 1021 30.15 850 25.1 -0.6 30.9 76 -4.3 24.2
12:35 1021 30.15 850 25.1 -0.2 31.6 72 -4.6 23.7
12:40 1021 30.15 850 25.1 0.1 32.3 69 -4.9 23.2
12:45 1021 30.15 850 25.1 -0 31.9 71 -4.8 23.4
12:50 1021 30.15 850 25.1 -0.4 31.2 71 -5.1 22.8
12:55 1021 30.15 850 25.1 -0.5 31.1 73 -4.8 23.3
13:00 1021 30.15 850 25.1 -0.2 31.6 72 -4.7 23.6
13:05 1021 30.15 850 25.1 0.2 32.3 71 -4.6 23.8
13:10 1021 30.15 850 25.1 0.4 32.8 70 -4.4 24.1
13:15 1021 30.15 850 25.1 0.1 32.2 70 -4.7 23.6
13:20 1021 30.15 850 25.1 -0.5 31.2 71 -5 22.9
13:25 1021 30.15 850 25.1 -0.2 31.6 69 -5.1 22.7
13:30 1021 30.15 850 25.1 0.1 32.2 69 -4.9 23.3
13:35 1021 30.15 850 25.1 0.1 32.1 72 -4.4 24.1
13:40 1021 30.15 850 25.1 -0.5 31 73 -4.7 23.5
13:45 1021 30.15 850 25.1 -0.5 31.1 74 -4.7 23.6
13:50 1021 30.15 850 25.1 -0.3 31.4 74 -4.5 23.9
13:55 1021 30.15 850 25.1 -0.3 31.4 72 -4.8 23.3
14:00 1021 30.15 850 25.1 -0.1 31.8 71 -4.7 23.5
14:05 1021 30.15 850 25.1 0.1 32.2 70 -4.8 23.4
14:10 1021 30.15 850 25.1 0 32.1 72 -4.5 23.9
14:15 1021 30.15 850 25.1 -0.6 31 74 -4.7 23.5
14:20 1021 30.15 850 25.1 -0.4 31.2 72 -4.8 23.3
14:25 1021 30.15 850 25.1 -0.4 31.4 74 -4.4 24.1
14:30 1021 30.15 850 25.1 -0.1 31.8 72 -4.6 23.7
14:35 1021 30.15 850 25.1 0.1 32.2 71 -4.5 23.9
14:40 1021 30.15 850 25.1 -0.7 30.7 75 -4.5 23.8
14:45 1021 30.15 850 25.1 -0.6 30.9 75 -4.5 24
14:50 1021 30.15 850 25.1 -0.8 30.5 77 -4.4 24.1
14:55 1021 30.15 850 25.1 -0.9 30.4 77 -4.5 23.9
15:00 1021 30.15 850 25.1 -0.8 30.5 76 -4.6 23.8
15:05 1021 30.15 850 25.1 -0.6 30.8 75 -4.5 23.9
15:10 1021 30.15 851 25.13 -0.7 30.7 77 -4.3 24.3
15:15 1021 30.15 851 25.13 -1.1 30 77 -4.7 23.5
15:20 1021 30.15 851 25.13 -1.2 29.9 77 -4.8 23.4
15:25 1021 30.15 851 25.13 -0.9 30.3 76 -4.7 23.6
15:30 1021 30.15 851 25.13 -0.7 30.8 73 -4.9 23.1
15:35 1022 30.18 851 25.13 -1 30.2 75 -4.9 23.3
15:40 1022 30.18 851 25.13 -1.3 29.7 75 -5.2 22.7
15:45 1022 30.18 851 25.13 -1.1 30 76 -4.8 23.3
15:50 1022 30.18 851 25.13 -1 30.2 74 -5.1 22.9
15:55 1022 30.18 851 25.13 -1.2 29.9 75 -5 23
16:00 1022 30.18 851 25.13 -1.2 29.9 75 -5.1 22.8
16:05 1022 30.18 851 25.13 -1.2 29.8 74 -5.3 22.4
16:10 1022 30.18 851 25.13 -1.3 29.7 74 -5.3 22.4
16:15 1022 30.18 851 25.13 -1.2 29.8 73 -5.4 22.2
16:20 1022 30.18 851 25.13 -1.2 29.8 74 -5.3 22.4
16:25 1022 30.18 851 25.13 -1.6 29.1 76 -5.3 22.5
16:30 1022 30.18 851 25.13 -1.6 29.2 76 -5.2 22.6
16:35 1022 30.18 851 25.13 -1.6 29.2 76 -5.2 22.6
16:40 1022 30.18 851 25.13 -1.6 29.1 76 -5.3 22.5
16:45 1022 30.18 851 25.13 -2 28.5 78 -5.3 22.5
16:50 1022 30.18 851 25.13 -2.1 28.2 79 -5.3 22.4
16:55 1022 30.18 851 25.13 -2.1 28.2 79 -5.3 22.5
17:00 1022 30.18 851 25.13 -2.1 28.2 79 -5.2 22.6
17:05 1022 30.18 851 25.13 -2.2 28 80 -5.2 22.6
17:10 1022 30.18 851 25.13 -2.1 28.2 80 -5.2 22.7
17:15 1022 30.18 851 25.13 -2.1 28.3 80 -5.1 22.8
17:20 1022 30.18 851 25.13 -2.1 28.3 80 -5.1 22.8
17:25 1022 30.18 851 25.13 -2 28.4 80 -5.1 22.8
17:30 1022 30.18 851 25.13 -1.9 28.6 79 -5 23
17:35 1022 30.18 852 25.16 -1.9 28.7 81 -4.8 23.4
17:40 1022 30.18 852 25.16 -2 28.5 82 -4.6 23.7
17:45 1022 30.18 852 25.16 -2.1 28.2 84 -4.5 23.8
17:50 1022 30.18 852 25.16 -2.3 27.9 84 -4.6 23.7
17:55 1022 30.18 852 25.16 -2.4 27.7 85 -4.5 23.8
18:00 1023 30.21 852 25.16 -2.5 27.5 86 -4.5 24
18:05 1023 30.21 852 25.16 -2.6 27.3 88 -4.4 24.1
18:10 1023 30.21 852 25.16 -2.5 27.4 88 -4.3 24.3
18:15 1023 30.21 852 25.16 -2.6 27.3 89 -4.2 24.5
18:20 1023 30.21 852 25.16 -2.7 27.1 89 -4.3 24.3
18:25 1023 30.21 852 25.16 -3 26.6 90 -4.4 24.1
18:30 1023 30.21 852 25.16 -3 26.5 91 -4.2 24.4
18:35 1023 30.21 852 25.16 -3 26.7 91 -4.2 24.4
18:40 1023 30.21 852 25.16 -3 26.7 90 -4.4 24
18:45 1023 30.21 852 25.16 -3.1 26.5 91 -4.4 24.2
18:50 1023 30.21 852 25.16 -3.1 26.4 90 -4.5 23.8
18:55 1023 30.21 852 25.16 -3.2 26.3 91 -4.4 24.1
19:00 1023 30.21 852 25.16 -3.1 26.4 91 -4.4 24
19:05 1023 30.21 852 25.16 -3.2 26.2 91 -4.4 24
19:10 1023 30.21 852 25.16 -3.2 26.2 89 -4.8 23.4
19:15 1023 30.21 852 25.16 -3.2 26.2 90 -4.7 23.5
19:20 1023 30.21 852 25.16 -3.3 26 92 -4.5 23.9
19:25 1023 30.21 853 25.19 -3.3 26 91 -4.6 23.8
19:30 1023 30.21 853 25.19 -3.3 26 92 -4.5 23.9
19:35 1023 30.21 853 25.19 -3.4 25.9 92 -4.5 24
19:40 1024 30.24 853 25.19 -3.3 26 93 -4.3 24.2
19:45 1024 30.24 853 25.19 -3.3 26.1 92 -4.4 24.1
19:50 1024 30.24 853 25.19 -3.3 26 93 -4.3 24.3
19:55 1024 30.24 853 25.19 -3.3 26 92 -4.4 24
20:00 1024 30.24 853 25.19 -3.4 25.9 93 -4.4 24.1
20:05 1024 30.24 853 25.19 -3.4 25.9 92 -4.5 24
20:10 1024 30.24 853 25.19 -3.4 25.9 93 -4.4 24.1
20:15 1024 30.24 853 25.19 -3.4 25.8 93 -4.5 23.9
20:20 1024 30.24 853 25.19 -3.6 25.5 93 -4.6 23.7
20:25 1024 30.24 853 25.19 -3.8 25.2 94 -4.6 23.7
20:30 1024 30.24 853 25.19 -3.7 25.3 93 -4.7 23.6
20:35 1024 30.24 853 25.19 -3.6 25.5 93 -4.6 23.7
20:40 1024 30.24 853 25.19 -3.5 25.6 94 -4.4 24
20:45 1024 30.24 853 25.19 -3.5 25.8 94 -4.3 24.2
20:50 1024 30.24 853 25.19 -3.4 25.9 94 -4.2 24.4
20:55 1024 30.24 853 25.19 -3.4 26 94 -4.2 24.5
21:00 1024 30.24 853 25.19 -3.4 26 94 -4.2 24.4
21:05 1024 30.24 853 25.19 -3.3 26 95 -4.1 24.7
21:10 1024 30.24 853 25.19 -3.3 26 94 -4.1 24.6
21:15 1024 30.24 853 25.19 -3.3 26.1 95 -4 24.8
21:20 1024 30.24 853 25.19 -3.3 26.1 94 -4.1 24.7
21:25 1024 30.24 853 25.19 -3.4 25.8 95 -4.1 24.6
21:30 1024 30.24 853 25.19 -3.5 25.6 96 -4.1 24.6
21:35 1024 30.24 853 25.19 -3.4 25.9 95 -4.1 24.7
21:40 1024 30.24 853 25.19 -3.2 26.2 95 -3.9 24.9
21:45 1024 30.24 853 25.19 -3.2 26.3 95 -3.9 25
21:50 1024 30.24 853 25.19 -3.2 26.2 94 -4 24.8
21:55 1024 30.24 853 25.19 -3.3 26.1 95 -4 24.9
22:00 1024 30.24 853 25.19 -3.1 26.4 94 -4 24.8
22:05 1024 30.24 853 25.19 -2.9 26.7 93 -3.9 25.1
22:10 1024 30.24 853 25.19 -3.1 26.5 94 -3.9 25.1
22:15 1024 30.24 853 25.19 -3.4 25.9 96 -4 24.8
22:20 1024 30.24 853 25.19 -3.5 25.6 96 -4.1 24.7
22:25 1024 30.24 853 25.19 -3.6 25.5 96 -4.2 24.5
22:30 1024 30.24 853 25.19 -3.6 25.4 96 -4.2 24.4
22:35 1024 30.24 853 25.19 -3.6 25.5 96 -4.2 24.4
22:40 1024 30.24 853 25.19 -3.6 25.6 95 -4.3 24.3
22:45 1024 30.24 853 25.19 -3.6 25.5 95 -4.3 24.3
22:50 1024 30.24 853 25.19 -3.6 25.6 95 -4.3 24.3
22:55 1024 30.24 853 25.19 -3.4 25.8 94 -4.3 24.3
23:00 1024 30.24 853 25.19 -3.3 26 93 -4.2 24.4
23:05 1024 30.24 854 25.22 -3.2 26.2 93 -4.3 24.3
23:10 1024 30.24 853 25.19 -3.2 26.3 92 -4.3 24.2
23:15 1024 30.24 853 25.19 -3.2 26.3 92 -4.3 24.3
23:20 1024 30.24 853 25.19 -3.1 26.4 91 -4.3 24.2
23:25 1024 30.24 853 25.19 -3.2 26.2 92 -4.4 24.1
23:30 1024 30.24 853 25.19 -3.3 26.1 91 -4.6 23.8
23:35 1024 30.24 853 25.19 -3.2 26.2 92 -4.4 24
23:40 1024 30.24 853 25.19 -3.2 26.2 90 -4.6 23.7
23:45 1024 30.24 853 25.19 -3.2 26.3 89 -4.7 23.5
23:50 1024 30.24 853 25.19 -3.1 26.5 87 -4.9 23.2
23:55 1024 30.24 853 25.19 -3.1 26.5 89 -4.7 23.6
24:00 1024 30.24 853 25.19 -3.1 26.4 89 -4.6 23.7